sensor_id;sensor_type;location;lat;lon;timestamp;pressure;altitude;pressure_sealevel;temperature;humidity
29239;BME280;16267;48.194;11.546;2024-03-08T00:00:28;95849.75;;;2.42;95.96
29239;BME280;16267;48.194;11.546;2024-03-08T00:02:53;95851.81;;;2.33;95.68
29239;BME280;16267;48.194;11.546;2024-03-08T00:05:20;95857.69;;;2.42;95.14
29239;BME280;16267;48.194;11.546;2024-03-08T00:07:46;95856.28;;;2.48;95.31
29239;BME280;16267;48.194;11.546;2024-03-08T00:10:12;95859.16;;;2.39;96.09
29239;BME280;16267;48.194;11.546;2024-03-08T00:12:44;95856.06;;;2.37;95.96
29239;BME280;16267;48.194;11.546;2024-03-08T00:15:16;95853.97;;;2.27;96.31
29239;BME280;16267;48.194;11.546;2024-03-08T00:17:42;95851.63;;;2.22;96.62
29239;BME280;16267;48.194;11.546;2024-03-08T00:20:09;95851.41;;;2.31;96.49
29239;BME280;16267;48.194;11.546;2024-03-08T00:22:36;95847.72;;;2.16;96.77
29239;BME280;16267;48.194;11.546;2024-03-08T00:25:03;95846.94;;;2.15;97.09
29239;BME280;16267;48.194;11.546;2024-03-08T00:27:29;95850.03;;;2.17;96.84
29239;BME280;16267;48.194;11.546;2024-03-08T00:29:59;95839.97;;;2.07;97.88
29239;BME280;16267;48.194;11.546;2024-03-08T00:32:26;95840.41;;;2.09;97.18
29239;BME280;16267;48.194;11.546;2024-03-08T00:34:56;95844.50;;;2.07;97.37
29239;BME280;16267;48.194;11.546;2024-03-08T00:37:22;95835.59;;;2.15;97.99
29239;BME280;16267;48.194;11.546;2024-03-08T00:39:51;95841.94;;;2.10;97.57
29239;BME280;16267;48.194;11.546;2024-03-08T00:42:18;95841.03;;;2.03;97.63
29239;BME280;16267;48.194;11.546;2024-03-08T00:44:44;95834.06;;;2.14;98.04
29239;BME280;16267;48.194;11.546;2024-03-08T00:47:10;95826.53;;;2.16;98.03
29239;BME280;16267;48.194;11.546;2024-03-08T00:49:37;95821.72;;;2.02;98.17
29239;BME280;16267;48.194;11.546;2024-03-08T00:52:06;95817.47;;;1.97;98.44
29239;BME280;16267;48.194;11.546;2024-03-08T00:54:32;95818.59;;;1.96;98.79
29239;BME280;16267;48.194;11.546;2024-03-08T00:56:58;95811.81;;;1.79;99.29
29239;BME280;16267;48.194;11.546;2024-03-08T00:59:25;95807.44;;;1.87;99.98
29239;BME280;16267;48.194;11.546;2024-03-08T01:01:50;95803.47;;;1.77;99.71
29239;BME280;16267;48.194;11.546;2024-03-08T01:04:16;95804.44;;;1.69;100.00
29239;BME280;16267;48.194;11.546;2024-03-08T01:06:42;95792.25;;;1.65;100.00
29239;BME280;16267;48.194;11.546;2024-03-08T01:09:13;95792.56;;;1.63;100.00
29239;BME280;16267;48.194;11.546;2024-03-08T01:11:39;95793.91;;;1.73;100.00
29239;BME280;16267;48.194;11.546;2024-03-08T01:14:05;95786.09;;;1.61;100.00
29239;BME280;16267;48.194;11.546;2024-03-08T01:16:30;95790.13;;;1.54;100.00
29239;BME280;16267;48.194;11.546;2024-03-08T01:18:58;95786.47;;;1.59;100.00
29239;BME280;16267;48.194;11.546;2024-03-08T01:21:24;95782.41;;;1.65;100.00
29239;BME280;16267;48.194;11.546;2024-03-08T01:23:50;95782.47;;;1.69;100.00
29239;BME280;16267;48.194;11.546;2024-03-08T01:26:16;95786.41;;;1.75;100.00
29239;BME280;16267;48.194;11.546;2024-03-08T01:28:41;95782.31;;;1.77;100.00
29239;BME280;16267;48.194;11.546;2024-03-08T01:31:07;95773.03;;;1.68;100.00
29239;BME280;16267;48.194;11.546;2024-03-08T01:33:33;95777.63;;;1.71;100.00
29239;BME280;16267;48.194;11.546;2024-03-08T01:35:59;95765.59;;;1.73;100.00
29239;BME280;16267;48.194;11.546;2024-03-08T01:38:24;95762.88;;;1.70;100.00
29239;BME280;16267;48.194;11.546;2024-03-08T01:40:50;95762.88;;;1.70;100.00
29239;BME280;16267;48.194;11.546;2024-03-08T01:43:20;95767.03;;;1.71;100.00
29239;BME280;16267;48.194;11.546;2024-03-08T01:45:47;95764.34;;;1.67;100.00
29239;BME280;16267;48.194;11.546;2024-03-08T01:48:14;95763.28;;;1.72;100.00
29239;BME280;16267;48.194;11.546;2024-03-08T01:50:40;95761.47;;;1.76;100.00
29239;BME280;16267;48.194;11.546;2024-03-08T01:53:08;95748.19;;;1.72;100.00
29239;BME280;16267;48.194;11.546;2024-03-08T01:55:36;95747.47;;;1.75;99.65
29239;BME280;16267;48.194;11.546;2024-03-08T01:58:04;95743.91;;;1.68;99.71
29239;BME280;16267;48.194;11.546;2024-03-08T02:00:31;95736.31;;;1.66;100.00
29239;BME280;16267;48.194;11.546;2024-03-08T02:02:58;95727.56;;;1.62;100.00
29239;BME280;16267;48.194;11.546;2024-03-08T02:05:25;95726.66;;;1.74;100.00
29239;BME280;16267;48.194;11.546;2024-03-08T02:07:51;95723.09;;;1.66;100.00
29239;BME280;16267;48.194;11.546;2024-03-08T02:10:17;95721.63;;;1.69;100.00
29239;BME280;16267;48.194;11.546;2024-03-08T02:12:44;95721.09;;;1.60;100.00
29239;BME280;16267;48.194;11.546;2024-03-08T02:15:09;95715.09;;;1.63;100.00
29239;BME280;16267;48.194;11.546;2024-03-08T02:17:36;95715.78;;;1.60;100.00
29239;BME280;16267;48.194;11.546;2024-03-08T02:20:02;95719.91;;;1.57;100.00
29239;BME280;16267;48.194;11.546;2024-03-08T02:22:30;95718.44;;;1.60;100.00
29239;BME280;16267;48.194;11.546;2024-03-08T02:25:00;95712.88;;;1.65;100.00
29239;BME280;16267;48.194;11.546;2024-03-08T02:27:27;95712.13;;;1.64;100.00
29239;BME280;16267;48.194;11.546;2024-03-08T02:29:56;95709.47;;;1.64;100.00
29239;BME280;16267;48.194;11.546;2024-03-08T02:32:25;95715.84;;;1.63;100.00
29239;BME280;16267;48.194;11.546;2024-03-08T02:34:55;95715.09;;;1.63;100.00
29239;BME280;16267;48.194;11.546;2024-03-08T02:37:21;95703.91;;;1.69;100.00
29239;BME280;16267;48.194;11.546;2024-03-08T02:39:47;95704.94;;;1.65;100.00
29239;BME280;16267;48.194;11.546;2024-03-08T02:42:13;95701.81;;;1.59;100.00
29239;BME280;16267;48.194;11.546;2024-03-08T02:44:43;95707.78;;;1.56;100.00
29239;BME280;16267;48.194;11.546;2024-03-08T02:47:11;95701.66;;;1.52;100.00
29239;BME280;16267;48.194;11.546;2024-03-08T02:49:37;95699.44;;;1.54;100.00
29239;BME280;16267;48.194;11.546;2024-03-08T02:52:04;95699.72;;;1.49;100.00
29239;BME280;16267;48.194;11.546;2024-03-08T02:54:30;95700.88;;;1.51;100.00
29239;BME280;16267;48.194;11.546;2024-03-08T02:56:56;95693.31;;;1.50;100.00
29239;BME280;16267;48.194;11.546;2024-03-08T02:59:22;95702.00;;;1.50;100.00
29239;BME280;16267;48.194;11.546;2024-03-08T03:01:49;95704.72;;;1.54;100.00
29239;BME280;16267;48.194;11.546;2024-03-08T03:04:14;95692.69;;;1.56;100.00
29239;BME280;16267;48.194;11.546;2024-03-08T03:06:40;95696.94;;;1.61;100.00
29239;BME280;16267;48.194;11.546;2024-03-08T03:09:06;95694.63;;;1.60;100.00
29239;BME280;16267;48.194;11.546;2024-03-08T03:11:32;95694.34;;;1.65;100.00
29239;BME280;16267;48.194;11.546;2024-03-08T03:13:58;95691.66;;;1.61;100.00
29239;BME280;16267;48.194;11.546;2024-03-08T03:16:24;95698.94;;;1.48;100.00
29239;BME280;16267;48.194;11.546;2024-03-08T03:18:49;95686.91;;;1.51;100.00
29239;BME280;16267;48.194;11.546;2024-03-08T03:21:15;95686.91;;;1.51;100.00
29239;BME280;16267;48.194;11.546;2024-03-08T03:23:41;95689.22;;;1.52;100.00
29239;BME280;16267;48.194;11.546;2024-03-08T03:26:10;95684.41;;;1.58;100.00
29239;BME280;16267;48.194;11.546;2024-03-08T03:28:38;95683.84;;;1.49;100.00
29239;BME280;16267;48.194;11.546;2024-03-08T03:31:08;95682.59;;;1.43;100.00
29239;BME280;16267;48.194;11.546;2024-03-08T03:33:40;95685.94;;;1.40;100.00
29239;BME280;16267;48.194;11.546;2024-03-08T03:36:06;95684.59;;;1.49;100.00
29239;BME280;16267;48.194;11.546;2024-03-08T03:38:34;95685.72;;;1.48;100.00
29239;BME280;16267;48.194;11.546;2024-03-08T03:41:00;95685.03;;;1.51;100.00
29239;BME280;16267;48.194;11.546;2024-03-08T03:43:36;95681.13;;;1.45;100.00
29239;BME280;16267;48.194;11.546;2024-03-08T03:46:06;95684.19;;;1.47;100.00
29239;BME280;16267;48.194;11.546;2024-03-08T03:48:33;95681.13;;;1.45;100.00
29239;BME280;16267;48.194;11.546;2024-03-08T03:50:58;95678.13;;;1.47;100.00
29239;BME280;16267;48.194;11.546;2024-03-08T03:53:24;95671.75;;;1.48;100.00
29239;BME280;16267;48.194;11.546;2024-03-08T03:55:51;95674.50;;;1.36;100.00
29239;BME280;16267;48.194;11.546;2024-03-08T03:58:17;95666.38;;;1.44;100.00
29239;BME280;16267;48.194;11.546;2024-03-08T04:00:48;95670.97;;;1.47;100.00
29239;BME280;16267;48.194;11.546;2024-03-08T04:03:14;95670.28;;;1.50;100.00
29239;BME280;16267;48.194;11.546;2024-03-08T04:05:40;95666.09;;;1.49;100.00
29239;BME280;16267;48.194;11.546;2024-03-08T04:08:05;95676.13;;;1.40;100.00
29239;BME280;16267;48.194;11.546;2024-03-08T04:10:31;95661.50;;;1.46;100.00
29239;BME280;16267;48.194;11.546;2024-03-08T04:12:57;95669.38;;;1.43;100.00
29239;BME280;16267;48.194;11.546;2024-03-08T04:15:23;95667.34;;;1.36;100.00
29239;BME280;16267;48.194;11.546;2024-03-08T04:17:49;95665.38;;;1.33;100.00
29239;BME280;16267;48.194;11.546;2024-03-08T04:20:14;95665.25;;;1.26;100.00
29239;BME280;16267;48.194;11.546;2024-03-08T04:22:40;95671.78;;;1.32;100.00
29239;BME280;16267;48.194;11.546;2024-03-08T04:25:07;95655.88;;;1.28;100.00
29239;BME280;16267;48.194;11.546;2024-03-08T04:27:33;95659.47;;;1.20;100.00
29239;BME280;16267;48.194;11.546;2024-03-08T04:30:00;95655.81;;;1.25;100.00
29239;BME280;16267;48.194;11.546;2024-03-08T04:32:26;95659.75;;;1.15;100.00
29239;BME280;16267;48.194;11.546;2024-03-08T04:34:53;95656.91;;;1.24;100.00
29239;BME280;16267;48.194;11.546;2024-03-08T04:37:19;95656.84;;;1.20;100.00
29239;BME280;16267;48.194;11.546;2024-03-08T04:39:48;95654.88;;;1.17;100.00
29239;BME280;16267;48.194;11.546;2024-03-08T04:42:14;95654.47;;;1.15;100.00
29239;BME280;16267;48.194;11.546;2024-03-08T04:44:40;95646.09;;;1.13;100.00
29239;BME280;16267;48.194;11.546;2024-03-08T04:47:06;95648.47;;;1.18;100.00
29239;BME280;16267;48.194;11.546;2024-03-08T04:49:33;95649.59;;;1.17;100.00
29239;BME280;16267;48.194;11.546;2024-03-08T04:52:05;95654.66;;;1.06;100.00
29239;BME280;16267;48.194;11.546;2024-03-08T04:54:32;95648.75;;;1.13;100.00
29239;BME280;16267;48.194;11.546;2024-03-08T04:56:58;95646.47;;;1.11;100.00
29239;BME280;16267;48.194;11.546;2024-03-08T04:59:27;95647.50;;;1.07;100.00
29239;BME280;16267;48.194;11.546;2024-03-08T05:01:53;95643.16;;;0.99;100.00
29239;BME280;16267;48.194;11.546;2024-03-08T05:04:19;95648.03;;;0.97;100.00
29239;BME280;16267;48.194;11.546;2024-03-08T05:06:45;95642.34;;;0.95;100.00
29239;BME280;16267;48.194;11.546;2024-03-08T05:09:10;95649.91;;;0.96;100.00
29239;BME280;16267;48.194;11.546;2024-03-08T05:11:41;95642.84;;;1.00;100.00
29239;BME280;16267;48.194;11.546;2024-03-08T05:14:06;95652.63;;;1.00;100.00
29239;BME280;16267;48.194;11.546;2024-03-08T05:16:32;95644.03;;;1.03;100.00
29239;BME280;16267;48.194;11.546;2024-03-08T05:18:58;95646.03;;;1.09;100.00
29239;BME280;16267;48.194;11.546;2024-03-08T05:21:24;95648.47;;;0.99;100.00
29239;BME280;16267;48.194;11.546;2024-03-08T05:23:50;95648.53;;;1.02;100.00
29239;BME280;16267;48.194;11.546;2024-03-08T05:26:16;95648.63;;;1.06;100.00
29239;BME280;16267;48.194;11.546;2024-03-08T05:28:42;95650.63;;;1.13;100.00
29239;BME280;16267;48.194;11.546;2024-03-08T05:31:08;95639.72;;;1.14;100.00
29239;BME280;16267;48.194;11.546;2024-03-08T05:33:34;95635.19;;;1.15;100.00
29239;BME280;16267;48.194;11.546;2024-03-08T05:36:03;95637.56;;;1.20;100.00
29239;BME280;16267;48.194;11.546;2024-03-08T05:38:28;95636.38;;;1.17;100.00
29239;BME280;16267;48.194;11.546;2024-03-08T05:40:55;95633.59;;;1.10;100.00
29239;BME280;16267;48.194;11.546;2024-03-08T05:43:21;95638.38;;;1.04;100.00
29239;BME280;16267;48.194;11.546;2024-03-08T05:45:47;95641.19;;;1.11;100.00
29239;BME280;16267;48.194;11.546;2024-03-08T05:48:13;95636.97;;;1.10;100.00
29239;BME280;16267;48.194;11.546;2024-03-08T05:50:39;95630.59;;;1.11;100.00
29239;BME280;16267;48.194;11.546;2024-03-08T05:53:05;95635.97;;;1.15;100.00
29239;BME280;16267;48.194;11.546;2024-03-08T05:55:33;95628.09;;;1.19;100.00
29239;BME280;16267;48.194;11.546;2024-03-08T05:58:02;95629.91;;;1.15;100.00
29239;BME280;16267;48.194;11.546;2024-03-08T06:00:28;95617.94;;;1.21;100.00
29239;BME280;16267;48.194;11.546;2024-03-08T06:02:53;95626.84;;;1.13;100.00
29239;BME280;16267;48.194;11.546;2024-03-08T06:05:21;95624.69;;;1.18;100.00
29239;BME280;16267;48.194;11.546;2024-03-08T06:07:48;95621.97;;;1.15;100.00
29239;BME280;16267;48.194;11.546;2024-03-08T06:10:14;95625.91;;;1.05;100.00
29239;BME280;16267;48.194;11.546;2024-03-08T06:12:42;95623.66;;;1.03;100.00
29239;BME280;16267;48.194;11.546;2024-03-08T06:15:09;95622.47;;;1.01;100.00
29239;BME280;16267;48.194;11.546;2024-03-08T06:17:36;95623.22;;;1.01;100.00
29239;BME280;16267;48.194;11.546;2024-03-08T06:20:02;95630.19;;;1.09;100.00
29239;BME280;16267;48.194;11.546;2024-03-08T06:22:29;95627.03;;;1.04;100.00
29239;BME280;16267;48.194;11.546;2024-03-08T06:24:56;95627.03;;;1.04;100.00
29239;BME280;16267;48.194;11.546;2024-03-08T06:27:22;95621.69;;;1.00;100.00
29239;BME280;16267;48.194;11.546;2024-03-08T06:29:48;95623.44;;;1.12;100.00
29239;BME280;16267;48.194;11.546;2024-03-08T06:32:14;95631.31;;;1.08;100.00
29239;BME280;16267;48.194;11.546;2024-03-08T06:34:41;95629.53;;;1.16;100.00
29239;BME280;16267;48.194;11.546;2024-03-08T06:37:07;95624.47;;;1.07;100.00
29239;BME280;16267;48.194;11.546;2024-03-08T06:39:32;95631.63;;;1.07;100.00
29239;BME280;16267;48.194;11.546;2024-03-08T06:41:59;95632.81;;;1.09;100.00
29239;BME280;16267;48.194;11.546;2024-03-08T06:44:25;95637.06;;;1.14;100.00
29239;BME280;16267;48.194;11.546;2024-03-08T06:46:51;95626.28;;;1.23;100.00
29239;BME280;16267;48.194;11.546;2024-03-08T06:49:17;95634.84;;;1.16;100.00
29239;BME280;16267;48.194;11.546;2024-03-08T06:51:42;95631.38;;;1.31;100.00
29239;BME280;16267;48.194;11.546;2024-03-08T06:54:08;95633.25;;;1.31;100.00
29239;BME280;16267;48.194;11.546;2024-03-08T06:56:37;95629.38;;;1.25;100.00
29239;BME280;16267;48.194;11.546;2024-03-08T06:59:03;95629.00;;;1.26;100.00
29239;BME280;16267;48.194;11.546;2024-03-08T07:01:29;95630.41;;;1.20;100.00
29239;BME280;16267;48.194;11.546;2024-03-08T07:03:58;95636.19;;;1.26;100.00
29239;BME280;16267;48.194;11.546;2024-03-08T07:06:24;95637.63;;;1.23;100.00
29239;BME280;16267;48.194;11.546;2024-03-08T07:08:49;95634.34;;;1.30;100.00
29239;BME280;16267;48.194;11.546;2024-03-08T07:11:15;95630.66;;;1.34;100.00
29239;BME280;16267;48.194;11.546;2024-03-08T07:13:47;95625.03;;;1.36;100.00
29239;BME280;16267;48.194;11.546;2024-03-08T07:16:13;95624.84;;;1.45;100.00
29239;BME280;16267;48.194;11.546;2024-03-08T07:18:38;95623.50;;;1.54;100.00
29239;BME280;16267;48.194;11.546;2024-03-08T07:21:11;95617.00;;;1.52;100.00
29239;BME280;16267;48.194;11.546;2024-03-08T07:23:37;95621.25;;;1.56;100.00
29239;BME280;16267;48.194;11.546;2024-03-08T07:26:16;95624.34;;;1.59;100.00
29239;BME280;16267;48.194;11.546;2024-03-08T07:28:42;95616.88;;;1.64;100.00
29239;BME280;16267;48.194;11.546;2024-03-08T07:31:07;95621.41;;;1.64;100.00
29239;BME280;16267;48.194;11.546;2024-03-08T07:33:43;95615.94;;;1.76;100.00
29239;BME280;16267;48.194;11.546;2024-03-08T07:36:08;95611.88;;;1.82;100.00
29239;BME280;16267;48.194;11.546;2024-03-08T07:38:34;95619.31;;;1.96;100.00
29239;BME280;16267;48.194;11.546;2024-03-08T07:41:00;95615.25;;;2.02;100.00
29239;BME280;16267;48.194;11.546;2024-03-08T07:43:26;95617.69;;;2.11;100.00
29239;BME280;16267;48.194;11.546;2024-03-08T07:45:52;95615.25;;;2.25;100.00
29239;BME280;16267;48.194;11.546;2024-03-08T07:48:20;95610.13;;;2.36;100.00
29239;BME280;16267;48.194;11.546;2024-03-08T07:50:47;95609.41;;;2.39;100.00
29239;BME280;16267;48.194;11.546;2024-03-08T07:53:15;95613.13;;;2.34;100.00
29239;BME280;16267;48.194;11.546;2024-03-08T07:55:41;95599.03;;;2.53;100.00
29239;BME280;16267;48.194;11.546;2024-03-08T07:58:08;95597.53;;;2.56;99.09
29239;BME280;16267;48.194;11.546;2024-03-08T08:00:36;95597.25;;;2.61;98.45
29239;BME280;16267;48.194;11.546;2024-03-08T08:03:03;95595.19;;;2.77;98.67
29239;BME280;16267;48.194;11.546;2024-03-08T08:05:30;95595.94;;;2.78;97.90
29239;BME280;16267;48.194;11.546;2024-03-08T08:08:03;95589.97;;;2.84;98.09
29239;BME280;16267;48.194;11.546;2024-03-08T08:10:32;95590.53;;;2.97;96.86
29239;BME280;16267;48.194;11.546;2024-03-08T08:12:58;95589.25;;;3.18;97.13
29239;BME280;16267;48.194;11.546;2024-03-08T08:15:24;95586.03;;;3.35;95.00
29239;BME280;16267;48.194;11.546;2024-03-08T08:17:50;95585.34;;;3.42;93.05
29239;BME280;16267;48.194;11.546;2024-03-08T08:20:18;95593.13;;;3.61;94.96
29239;BME280;16267;48.194;11.546;2024-03-08T08:22:44;95578.91;;;3.80;95.76
29239;BME280;16267;48.194;11.546;2024-03-08T08:25:10;95582.16;;;4.07;95.96
29239;BME280;16267;48.194;11.546;2024-03-08T08:27:39;95584.44;;;4.05;91.36
29239;BME280;16267;48.194;11.546;2024-03-08T08:30:08;95578.81;;;4.10;90.32
29239;BME280;16267;48.194;11.546;2024-03-08T08:32:38;95574.47;;;3.95;89.61
29239;BME280;16267;48.194;11.546;2024-03-08T08:35:10;95569.03;;;4.21;91.11
29239;BME280;16267;48.194;11.546;2024-03-08T08:37:41;95566.41;;;4.32;89.03
29239;BME280;16267;48.194;11.546;2024-03-08T08:40:08;95567.28;;;4.47;88.47
29239;BME280;16267;48.194;11.546;2024-03-08T08:42:40;95559.69;;;4.45;86.83
29239;BME280;16267;48.194;11.546;2024-03-08T08:45:06;95553.34;;;4.64;86.64
29239;BME280;16267;48.194;11.546;2024-03-08T08:47:36;95551.56;;;4.86;88.95
29239;BME280;16267;48.194;11.546;2024-03-08T08:50:04;95549.34;;;5.06;86.47
29239;BME280;16267;48.194;11.546;2024-03-08T08:52:33;95542.88;;;5.00;84.41
29239;BME280;16267;48.194;11.546;2024-03-08T08:55:00;95548.94;;;4.97;82.63
29239;BME280;16267;48.194;11.546;2024-03-08T08:57:26;95548.63;;;5.13;84.66
29239;BME280;16267;48.194;11.546;2024-03-08T08:59:53;95542.84;;;4.93;82.60
29239;BME280;16267;48.194;11.546;2024-03-08T09:02:19;95540.56;;;4.91;82.94
29239;BME280;16267;48.194;11.546;2024-03-08T09:04:46;95536.81;;;5.00;83.65
29239;BME280;16267;48.194;11.546;2024-03-08T09:07:14;95541.00;;;5.08;84.11
29239;BME280;16267;48.194;11.546;2024-03-08T09:09:42;95536.09;;;5.21;83.72
29239;BME280;16267;48.194;11.546;2024-03-08T09:12:07;95542.59;;;5.34;81.81
29239;BME280;16267;48.194;11.546;2024-03-08T09:14:33;95532.78;;;5.49;82.96
29239;BME280;16267;48.194;11.546;2024-03-08T09:17:00;95530.84;;;5.42;81.37
29239;BME280;16267;48.194;11.546;2024-03-08T09:19:26;95531.25;;;5.58;82.23
29239;BME280;16267;48.194;11.546;2024-03-08T09:21:52;95525.56;;;5.74;81.16
29239;BME280;16267;48.194;11.546;2024-03-08T09:24:17;95521.03;;;5.82;80.01
29239;BME280;16267;48.194;11.546;2024-03-08T09:26:43;95522.16;;;5.88;81.44
29239;BME280;16267;48.194;11.546;2024-03-08T09:29:09;95516.44;;;5.90;80.51
29239;BME280;16267;48.194;11.546;2024-03-08T09:31:36;95514.97;;;5.99;80.08
29239;BME280;16267;48.194;11.546;2024-03-08T09:34:03;95506.59;;;6.15;80.69
29239;BME280;16267;48.194;11.546;2024-03-08T09:36:29;95514.97;;;5.99;78.50
29239;BME280;16267;48.194;11.546;2024-03-08T09:38:58;95505.03;;;5.78;77.17
29239;BME280;16267;48.194;11.546;2024-03-08T09:41:24;95509.25;;;6.01;79.57
29239;BME280;16267;48.194;11.546;2024-03-08T09:43:50;95508.09;;;6.09;78.42
29239;BME280;16267;48.194;11.546;2024-03-08T09:46:16;95512.66;;;6.19;78.44
29239;BME280;16267;48.194;11.546;2024-03-08T09:48:45;95506.59;;;6.15;77.81
29239;BME280;16267;48.194;11.546;2024-03-08T09:51:12;95497.03;;;6.29;77.54
29239;BME280;16267;48.194;11.546;2024-03-08T09:53:41;95497.00;;;6.39;78.73
29239;BME280;16267;48.194;11.546;2024-03-08T09:56:08;95490.16;;;6.49;78.21
29239;BME280;16267;48.194;11.546;2024-03-08T09:58:34;95496.59;;;6.48;77.27
29239;BME280;16267;48.194;11.546;2024-03-08T10:01:00;95497.72;;;6.65;78.76
29239;BME280;16267;48.194;11.546;2024-03-08T10:03:30;95498.84;;;6.71;76.29
29239;BME280;16267;48.194;11.546;2024-03-08T10:05:57;95489.28;;;6.81;75.91
29239;BME280;16267;48.194;11.546;2024-03-08T10:08:30;95493.84;;;6.84;74.74
29239;BME280;16267;48.194;11.546;2024-03-08T10:10:56;95485.84;;;6.80;75.24
29239;BME280;16267;48.194;11.546;2024-03-08T10:13:25;95480.44;;;6.98;76.70
29239;BME280;16267;48.194;11.546;2024-03-08T10:15:55;95482.69;;;7.10;75.61
29239;BME280;16267;48.194;11.546;2024-03-08T10:18:21;95473.81;;;7.28;73.63
29239;BME280;16267;48.194;11.546;2024-03-08T10:21:06;95474.44;;;7.50;72.57
29239;BME280;16267;48.194;11.546;2024-03-08T10:23:33;95475.19;;;7.54;70.91
29239;BME280;16267;48.194;11.546;2024-03-08T10:26:25;95470.41;;;7.76;71.09
29239;BME280;16267;48.194;11.546;2024-03-08T10:28:52;95466.66;;;7.73;68.37
29239;BME280;16267;48.194;11.546;2024-03-08T10:31:19;95466.31;;;7.68;69.71
29239;BME280;16267;48.194;11.546;2024-03-08T10:33:46;95464.25;;;7.86;70.02
29239;BME280;16267;48.194;11.546;2024-03-08T10:36:14;95455.81;;;7.91;68.54
29239;BME280;16267;48.194;11.546;2024-03-08T10:38:42;95458.53;;;7.88;69.86
29239;BME280;16267;48.194;11.546;2024-03-08T10:41:09;95459.09;;;8.06;69.65
29239;BME280;16267;48.194;11.546;2024-03-08T10:44:26;95450.28;;;8.09;69.03
29239;BME280;16267;48.194;11.546;2024-03-08T10:47:06;95453.31;;;8.15;68.57
29239;BME280;16267;48.194;11.546;2024-03-08T10:50:02;95439.44;;;8.27;68.66
29239;BME280;16267;48.194;11.546;2024-03-08T10:52:32;95446.16;;;8.42;67.80
29239;BME280;16267;48.194;11.546;2024-03-08T10:55:01;95439.25;;;8.48;66.53
29239;BME280;16267;48.194;11.546;2024-03-08T10:57:27;95437.56;;;8.62;68.44
29239;BME280;16267;48.194;11.546;2024-03-08T10:59:54;95439.72;;;8.74;65.94
29239;BME280;16267;48.194;11.546;2024-03-08T11:02:20;95434.53;;;8.90;66.37
29239;BME280;16267;48.194;11.546;2024-03-08T11:04:51;95443.06;;;9.12;66.32
29239;BME280;16267;48.194;11.546;2024-03-08T11:07:17;95431.84;;;9.21;63.80
29239;BME280;16267;48.194;11.546;2024-03-08T11:09:45;95429.91;;;9.22;64.90
29239;BME280;16267;48.194;11.546;2024-03-08T11:12:23;95416.16;;;9.47;69.14
29239;BME280;16267;48.194;11.546;2024-03-08T11:14:59;95409.31;;;9.69;65.62
29239;BME280;16267;48.194;11.546;2024-03-08T11:17:44;95412.81;;;9.90;64.61
29239;BME280;16267;48.194;11.546;2024-03-08T11:20:12;95407.66;;;9.99;63.48
29239;BME280;16267;48.194;11.546;2024-03-08T11:23:08;95404.19;;;10.22;63.26
29239;BME280;16267;48.194;11.546;2024-03-08T11:28:18;95387.25;;;10.29;60.99
29239;BME280;16267;48.194;11.546;2024-03-08T11:33:35;95388.44;;;10.47;60.34
29239;BME280;16267;48.194;11.546;2024-03-08T11:36:22;95393.09;;;10.43;59.86
29239;BME280;16267;48.194;11.546;2024-03-08T11:38:53;95386.56;;;10.64;59.61
29239;BME280;16267;48.194;11.546;2024-03-08T11:41:24;95383.56;;;10.79;58.29
29239;BME280;16267;48.194;11.546;2024-03-08T11:44:03;95373.41;;;10.70;56.60
29239;BME280;16267;48.194;11.546;2024-03-08T11:46:32;95376.88;;;10.87;60.25
29239;BME280;16267;48.194;11.546;2024-03-08T11:49:00;95378.13;;;10.82;56.51
29239;BME280;16267;48.194;11.546;2024-03-08T11:51:26;95378.22;;;10.79;55.98
29239;BME280;16267;48.194;11.546;2024-03-08T11:53:52;95378.25;;;10.75;57.82
29239;BME280;16267;48.194;11.546;2024-03-08T11:56:18;95380.53;;;10.77;57.70
29239;BME280;16267;48.194;11.546;2024-03-08T11:58:56;95372.34;;;10.64;56.34
29239;BME280;16267;48.194;11.546;2024-03-08T12:01:23;95374.25;;;10.67;56.83
29239;BME280;16267;48.194;11.546;2024-03-08T12:03:56;95368.38;;;10.52;55.83
29239;BME280;16267;48.194;11.546;2024-03-08T12:06:27;95363.03;;;10.52;57.80
29239;BME280;16267;48.194;11.546;2024-03-08T12:09:01;95354.13;;;10.55;56.82
29239;BME280;16267;48.194;11.546;2024-03-08T12:11:28;95351.81;;;10.57;56.92
29239;BME280;16267;48.194;11.546;2024-03-08T12:13:53;95342.19;;;10.40;56.47
29239;BME280;16267;48.194;11.546;2024-03-08T12:16:20;95351.31;;;10.22;56.45
29239;BME280;16267;48.194;11.546;2024-03-08T12:18:50;95347.03;;;10.25;57.00
29239;BME280;16267;48.194;11.546;2024-03-08T12:21:17;95349.16;;;10.14;56.94
29239;BME280;16267;48.194;11.546;2024-03-08T12:23:46;95340.25;;;10.20;57.64
29239;BME280;16267;48.194;11.546;2024-03-08T12:26:24;95334.06;;;10.23;57.43
29239;BME280;16267;48.194;11.546;2024-03-08T12:28:51;95331.94;;;10.15;57.18
29239;BME280;16267;48.194;11.546;2024-03-08T12:31:18;95332.97;;;10.21;58.52
29239;BME280;16267;48.194;11.546;2024-03-08T12:33:51;95323.72;;;10.22;59.37
29239;BME280;16267;48.194;11.546;2024-03-08T12:36:18;95322.44;;;10.30;59.04
29239;BME280;16267;48.194;11.546;2024-03-08T12:38:47;95317.84;;;10.31;60.06
29239;BME280;16267;48.194;11.546;2024-03-08T12:41:14;95319.94;;;10.19;57.84
29239;BME280;16267;48.194;11.546;2024-03-08T12:43:41;95313.84;;;10.19;58.13
29239;BME280;16267;48.194;11.546;2024-03-08T12:46:07;95309.66;;;10.18;58.95
29239;BME280;16267;48.194;11.546;2024-03-08T12:48:37;95301.69;;;10.14;58.68
29239;BME280;16267;48.194;11.546;2024-03-08T12:51:07;95301.59;;;10.18;58.99
29239;BME280;16267;48.194;11.546;2024-03-08T12:53:33;95301.38;;;10.09;58.56
29239;BME280;16267;48.194;11.546;2024-03-08T12:56:00;95297.81;;;10.15;58.30
29239;BME280;16267;48.194;11.546;2024-03-08T12:58:25;95279.13;;;10.12;56.55
29239;BME280;16267;48.194;11.546;2024-03-08T13:00:52;95275.63;;;10.15;57.90